Time;durP1;ratioP1;P1;durP2;ratioP2;P2;SDS_P1;SDS_P2;PMS_P1;PMS_P2;Temp;Humidity;BMP_temperature;BMP_pressure;BME280_temperature;BME280_humidity;BME280_pressure;Samples;Min_cycle;Max_cycle;Signal;HPM_P1;HPM_P2
2022/07/28 00:02:23;;;;;;;3.03;2.10;;;12.40;93.60;;;;;;5062993;28;20651;-65
2022/07/28 00:04:49;;;;;;;5.15;2.30;;;12.40;93.80;;;;;;5045430;28;20059;-64
2022/07/28 00:07:15;;;;;;;2.72;2.08;;;12.40;94.00;;;;;;5041565;28;20554;-64
2022/07/28 00:09:40;;;;;;;4.15;2.13;;;12.40;94.20;;;;;;5027195;28;20488;-64
2022/07/28 00:12:06;;;;;;;3.47;2.05;;;12.40;94.30;;;;;;5045268;28;26328;-64
2022/07/28 00:14:33;;;;;;;4.38;2.10;;;12.40;94.30;;;;;;5051048;28;20544;-64
2022/07/28 00:16:59;;;;;;;3.58;2.00;;;12.40;94.20;;;;;;5048268;28;20121;-65
2022/07/28 00:19:25;;;;;;;3.17;2.03;;;12.30;94.20;;;;;;5045564;28;20040;-64
2022/07/28 00:21:51;;;;;;;3.35;1.90;;;12.40;94.30;;;;;;5065650;28;20051;-64
2022/07/28 00:24:16;;;;;;;2.83;2.13;;;12.30;94.20;;;;;;5047078;28;20055;-65
2022/07/28 00:26:43;;;;;;;2.85;2.17;;;12.30;94.20;;;;;;5051399;28;20063;-65
2022/07/28 00:29:08;;;;;;;3.95;2.28;;;12.30;94.00;;;;;;5045719;28;20052;-63
2022/07/28 00:31:34;;;;;;;3.22;2.33;;;12.30;94.00;;;;;;5048443;28;20516;-64
2022/07/28 00:34:00;;;;;;;10.80;1.95;;;12.30;94.20;;;;;;5046715;28;20501;-64
2022/07/28 00:36:26;;;;;;;3.40;2.20;;;12.30;94.40;;;;;;5040443;28;20115;-64
2022/07/28 00:38:51;;;;;;;3.97;1.90;;;12.30;94.60;;;;;;5066094;28;20048;-65
2022/07/28 00:41:19;;;;;;;2.70;2.17;;;12.30;94.60;;;;;;5028157;28;20859;-65
2022/07/28 00:43:50;;;;;;;3.83;2.13;;;12.20;94.80;;;;;;5035142;28;20048;-65
2022/07/28 00:46:20;;;;;;;4.18;2.47;;;12.20;94.90;;;;;;5067034;28;20051;-65
2022/07/28 00:48:49;;;;;;;2.95;2.00;;;12.10;95.00;;;;;;5053102;28;20049;-65
2022/07/28 00:51:16;;;;;;;3.20;2.33;;;12.10;95.20;;;;;;5044326;28;20537;-64
2022/07/28 00:53:42;;;;;;;2.45;2.10;;;12.10;95.20;;;;;;5047855;28;20087;-65
2022/07/28 00:56:09;;;;;;;3.08;2.20;;;12.10;95.40;;;;;;5046265;28;20040;-65
2022/07/28 00:58:36;;;;;;;2.97;1.95;;;12.00;95.50;;;;;;5052691;28;20063;-65
2022/07/28 01:01:07;;;;;;;3.42;1.85;;;12.00;95.50;;;;;;5049274;28;20052;-65
2022/07/28 01:03:38;;;;;;;4.85;2.53;;;12.00;95.70;;;;;;5049170;28;20048;-65
2022/07/28 01:06:06;;;;;;;2.97;2.40;;;12.00;95.80;;;;;;5042275;28;20479;-65
2022/07/28 01:08:36;;;;;;;5.10;2.95;;;12.00;96.40;;;;;;5045445;28;20045;-65
2022/07/28 01:11:13;;;;;;;3.25;2.17;;;11.90;96.90;;;;;;5046052;28;20060;-65
2022/07/28 01:14:12;;;;;;;8.65;2.25;;;11.90;97.10;;;;;;5068256;28;20083;-65
2022/07/28 01:17:14;;;;;;;2.80;2.17;;;11.90;97.10;;;;;;5064490;28;20601;-65
2022/07/28 01:20:08;;;;;;;3.58;2.25;;;11.80;97.00;;;;;;4982803;28;20521;-65
2022/07/28 01:22:40;;;;;;;3.38;2.10;;;11.80;97.10;;;;;;5043645;28;20687;-64
2022/07/28 01:25:20;;;;;;;;;;;11.80;97.30;;;;;;5047979;28;20044;-65
2022/07/28 01:28:09;;;;;;;2.72;2.20;;;11.80;97.40;;;;;;5028362;28;19969;-64
2022/07/28 01:30:40;;;;;;;2.78;2.10;;;11.80;97.20;;;;;;5046743;28;20556;-64
2022/07/28 01:33:19;;;;;;;6.20;2.97;;;11.80;97.30;;;;;;5065748;28;20051;-65
2022/07/28 01:35:55;;;;;;;3.20;2.20;;;11.80;97.70;;;;;;5060838;28;20033;-66
2022/07/28 01:38:23;;;;;;;5.50;2.40;;;11.80;97.70;;;;;;5044702;28;20110;-66
2022/07/28 01:40:53;;;;;;;3.72;2.80;;;11.80;97.80;;;;;;5051405;28;20040;-65
2022/07/28 01:43:23;;;;;;;6.15;3.17;;;11.80;98.00;;;;;;5062513;28;20059;-65
2022/07/28 01:45:50;;;;;;;7.88;3.10;;;11.70;98.50;;;;;;5048984;28;20048;-65
2022/07/28 01:48:17;;;;;;;3.83;3.00;;;11.70;98.80;;;;;;5027152;28;21238;-65
2022/07/28 01:50:46;;;;;;;3.65;2.55;;;11.70;99.10;;;;;;5064541;28;20050;-65
2022/07/28 01:53:14;;;;;;;5.00;2.55;;;11.70;99.20;;;;;;5019822;28;20044;-65
2022/07/28 01:55:42;;;;;;;3.47;2.60;;;11.70;99.10;;;;;;5048337;28;20039;-65
2022/07/28 01:58:10;;;;;;;4.15;3.20;;;11.60;99.10;;;;;;5047800;28;20040;-65
2022/07/28 02:00:37;;;;;;;5.40;3.50;;;11.70;99.40;;;;;;5031976;28;20056;-65
2022/07/28 02:03:05;;;;;;;4.63;3.15;;;11.70;99.80;;;;;;5044430;28;20071;-65
2022/07/28 02:05:34;;;;;;;4.05;3.15;;;11.70;99.90;;;;;;5064756;28;20115;-65
2022/07/28 02:08:02;;;;;;;4.28;3.40;;;11.70;99.90;;;;;;5045223;28;20044;-65
2022/07/28 02:10:29;;;;;;;6.13;3.40;;;11.60;99.90;;;;;;5047558;28;20505;-65
2022/07/28 02:12:58;;;;;;;3.72;2.92;;;11.60;99.90;;;;;;5057581;28;20044;-65
2022/07/28 02:15:26;;;;;;;3.60;3.08;;;11.60;99.90;;;;;;5061452;28;20070;-65
2022/07/28 02:17:54;;;;;;;4.25;2.80;;;11.50;99.90;;;;;;5043019;28;20076;-65
2022/07/28 02:20:21;;;;;;;5.75;3.75;;;11.60;99.90;;;;;;5045980;28;20040;-65
2022/07/28 02:22:49;;;;;;;3.95;3.47;;;11.60;99.90;;;;;;5044487;28;20084;-65
2022/07/28 02:25:15;;;;;;;5.55;3.33;;;11.60;99.90;;;;;;5034376;28;20050;-65
2022/07/28 02:27:57;;;;;;;6.00;3.72;;;11.60;99.90;;;;;;5049441;28;20044;-65
2022/07/28 02:30:35;;;;;;;4.43;3.53;;;11.60;99.90;;;;;;5019881;28;20052;-65
2022/07/28 02:33:07;;;;;;;6.55;3.42;;;11.60;99.90;;;;;;5046627;28;20044;-65
2022/07/28 02:35:48;;;;;;;4.50;3.40;;;11.60;99.90;;;;;;5039383;28;20102;-65
2022/07/28 02:38:20;;;;;;;6.68;3.70;;;11.60;99.90;;;;;;5040697;28;20402;-65
2022/07/28 02:40:48;;;;;;;7.18;3.97;;;11.60;99.90;;;;;;5033216;28;20044;-65
2022/07/28 02:43:16;;;;;;;5.03;3.72;;;11.60;99.90;;;;;;5043788;28;20051;-65
2022/07/28 02:45:47;;;;;;;5.85;4.00;;;11.60;99.90;;;;;;5044101;28;20562;-65
2022/07/28 02:48:17;;;;;;;6.45;3.65;;;11.60;99.90;;;;;;5043716;28;20059;-65
2022/07/28 02:50:45;;;;;;;7.85;3.78;;;11.60;99.90;;;;;;5042979;28;20056;-65
2022/07/28 02:53:13;;;;;;;5.55;3.67;;;11.60;99.90;;;;;;5046719;28;20055;-65
2022/07/28 02:55:39;;;;;;;6.53;3.92;;;11.70;99.90;;;;;;5063278;28;20072;-65
2022/07/28 02:58:07;;;;;;;4.00;3.60;;;11.70;99.90;;;;;;5042191;28;20083;-66
2022/07/28 03:00:34;;;;;;;5.70;3.70;;;11.70;99.90;;;;;;5039654;28;20122;-65
2022/07/28 03:03:00;;;;;;;5.97;3.42;;;11.70;99.90;;;;;;5030880;28;20051;-66
2022/07/28 03:05:27;;;;;;;5.10;3.08;;;11.70;99.90;;;;;;5047049;28;20047;-66
2022/07/28 03:07:55;;;;;;;5.68;3.80;;;11.70;99.90;;;;;;5062944;28;20054;-65
2022/07/28 03:10:24;;;;;;;3.92;3.53;;;11.80;99.90;;;;;;5026741;28;20048;-65
2022/07/28 03:12:51;;;;;;;4.70;3.28;;;11.80;99.90;;;;;;5042570;28;20041;-65
2022/07/28 03:15:16;;;;;;;7.80;3.45;;;11.80;99.90;;;;;;5047137;28;20108;-65
2022/07/28 03:17:42;;;;;;;5.65;3.28;;;11.80;99.90;;;;;;5045178;28;20168;-65
2022/07/28 03:20:10;;;;;;;5.65;3.30;;;11.90;99.90;;;;;;5064760;28;20067;-65
2022/07/28 03:22:35;;;;;;;5.68;3.38;;;11.90;99.90;;;;;;5043931;28;20047;-65
2022/07/28 03:25:05;;;;;;;6.05;3.03;;;11.90;99.90;;;;;;5048763;28;20048;-65
2022/07/28 03:27:37;;;;;;;4.32;3.20;;;11.90;99.90;;;;;;5035593;28;20491;-65
2022/07/28 03:30:15;;;;;;;4.80;2.97;;;12.00;99.90;;;;;;5062332;28;20437;-65
2022/07/28 03:32:45;;;;;;;4.32;2.72;;;12.00;99.90;;;;;;5061768;28;20146;-65
2022/07/28 03:35:13;;;;;;;5.93;3.50;;;12.00;99.90;;;;;;5042149;28;20044;-64
2022/07/28 03:37:50;;;;;;;5.25;3.67;;;12.00;99.90;;;;;;5060811;28;20044;-64
2022/07/28 03:40:18;;;;;;;5.10;3.42;;;12.10;99.90;;;;;;5045535;28;20044;-64
2022/07/28 03:42:47;;;;;;;5.13;3.33;;;12.10;99.90;;;;;;5047077;28;20032;-65
2022/07/28 03:45:14;;;;;;;3.75;3.40;;;12.10;99.90;;;;;;5041700;28;20053;-64
2022/07/28 03:47:49;;;;;;;5.70;3.47;;;12.10;99.90;;;;;;5044771;28;20053;-64
2022/07/28 03:50:15;;;;;;;6.75;3.40;;;12.20;99.90;;;;;;5046376;28;20056;-65
2022/07/28 03:52:40;;;;;;;6.65;3.55;;;12.20;99.90;;;;;;5044534;28;20233;-64
2022/07/28 03:55:07;;;;;;;6.57;3.45;;;12.20;99.90;;;;;;5046341;28;20049;-65
2022/07/28 03:57:33;;;;;;;4.20;3.25;;;12.30;99.90;;;;;;5048239;28;20112;-65
2022/07/28 03:59:59;;;;;;;5.00;2.90;;;12.30;99.90;;;;;;5034785;28;20044;-65
2022/07/28 04:02:24;;;;;;;6.53;3.30;;;12.30;99.90;;;;;;5058228;28;20044;-65
2022/07/28 04:04:50;;;;;;;5.82;3.40;;;12.30;99.90;;;;;;5014592;28;20497;-65
2022/07/28 04:07:16;;;;;;;7.50;3.70;;;12.40;99.90;;;;;;5029912;28;20339;-65
2022/07/28 04:09:42;;;;;;;4.70;3.10;;;12.40;99.90;;;;;;5048492;28;20051;-65
2022/07/28 04:12:08;;;;;;;6.60;3.55;;;12.40;99.90;;;;;;5050466;28;20534;-65
2022/07/28 04:14:34;;;;;;;6.40;3.13;;;12.40;99.90;;;;;;5044691;28;20056;-65
2022/07/28 04:16:59;;;;;;;4.93;3.42;;;12.40;99.90;;;;;;5044432;28;20080;-65
2022/07/28 04:19:25;;;;;;;7.97;2.97;;;12.40;99.90;;;;;;5047616;28;20052;-65
2022/07/28 04:21:51;;;;;;;6.70;3.10;;;12.40;99.90;;;;;;5045833;28;20055;-65
2022/07/28 04:24:17;;;;;;;5.20;3.20;;;12.40;99.90;;;;;;5035087;28;20048;-65
2022/07/28 04:26:42;;;;;;;8.32;3.70;;;12.40;99.90;;;;;;5058725;28;20422;-65
2022/07/28 04:29:08;;;;;;;6.72;3.10;;;12.40;99.90;;;;;;5051273;28;20489;-65
2022/07/28 04:31:34;;;;;;;3.08;2.70;;;12.40;99.90;;;;;;5052211;28;20096;-65
2022/07/28 04:34:00;;;;;;;3.78;2.53;;;12.40;99.90;;;;;;5060117;28;20048;-65
2022/07/28 04:36:26;;;;;;;3.00;2.45;;;12.40;99.90;;;;;;5047990;28;20265;-65
2022/07/28 04:38:52;;;;;;;4.63;3.00;;;12.30;99.90;;;;;;5051332;28;20050;-65
2022/07/28 04:41:18;;;;;;;4.93;2.65;;;12.30;99.90;;;;;;5022963;28;20140;-65
2022/07/28 04:43:44;;;;;;;3.83;3.08;;;12.40;99.90;;;;;;5052891;28;20127;-64
2022/07/28 04:46:10;;;;;;;6.68;3.92;;;12.30;99.90;;;;;;5037289;28;20490;-66
2022/07/28 04:48:35;;;;;;;6.53;3.25;;;12.30;99.90;;;;;;5035311;28;20129;-65
2022/07/28 04:51:01;;;;;;;4.63;3.03;;;12.30;99.90;;;;;;5050594;28;20051;-66
2022/07/28 04:53:29;;;;;;;4.93;3.13;;;12.40;99.90;;;;;;5042703;28;20396;-66
2022/07/28 04:55:56;;;;;;;4.30;3.33;;;12.30;99.90;;;;;;5031058;28;20049;-66
2022/07/28 04:58:23;;;;;;;4.20;3.42;;;12.30;99.90;;;;;;5023901;28;20040;-66
2022/07/28 05:00:49;;;;;;;5.78;3.35;;;12.30;99.90;;;;;;5048405;28;20099;-66
2022/07/28 05:03:14;;;;;;;5.95;4.13;;;12.30;99.90;;;;;;5049283;28;20049;-65
2022/07/28 05:05:40;;;;;;;7.35;3.70;;;12.30;99.90;;;;;;5054391;28;20074;-66
2022/07/28 05:08:06;;;;;;;7.70;3.58;;;12.30;99.90;;;;;;5052280;28;20059;-66
2022/07/28 05:10:32;;;;;;;3.85;3.28;;;12.40;99.90;;;;;;5055106;28;20054;-66
2022/07/28 05:13:02;;;;;;;5.95;3.60;;;12.40;99.90;;;;;;5036820;28;20044;-64
2022/07/28 05:15:28;;;;;;;7.22;3.60;;;12.40;99.90;;;;;;5043045;28;20052;-64
2022/07/28 05:17:54;;;;;;;3.45;3.15;;;12.40;99.90;;;;;;5039830;28;20590;-64
2022/07/28 05:20:20;;;;;;;4.85;3.25;;;12.40;99.90;;;;;;5050197;28;20732;-65
2022/07/28 05:22:49;;;;;;;6.35;3.17;;;12.50;99.90;;;;;;5068115;28;20048;-64
2022/07/28 05:25:22;;;;;;;6.43;3.70;;;12.60;99.90;;;;;;5034849;28;20040;-64
2022/07/28 05:27:49;;;;;;;5.55;3.83;;;12.60;99.90;;;;;;5050590;28;20043;-64
2022/07/28 05:30:15;;;;;;;5.25;3.50;;;12.70;99.90;;;;;;5051215;28;20315;-64
2022/07/28 05:32:42;;;;;;;6.47;3.85;;;12.70;99.90;;;;;;5073268;28;20040;-64
2022/07/28 05:35:08;;;;;;;6.85;3.78;;;12.70;99.90;;;;;;5053678;28;20044;-64
2022/07/28 05:37:35;;;;;;;7.35;3.65;;;12.80;99.90;;;;;;5039251;28;20036;-65
2022/07/28 05:40:12;;;;;;;5.47;3.38;;;12.90;99.90;;;;;;5043235;28;20098;-64
2022/07/28 05:42:40;;;;;;;6.63;3.92;;;12.90;99.90;;;;;;5048686;28;20045;-64
2022/07/28 05:45:07;;;;;;;5.15;3.72;;;13.00;99.90;;;;;;5055378;28;20486;-64
2022/07/28 05:47:48;;;;;;;5.90;3.67;;;13.00;99.90;;;;;;5038188;28;20052;-64
2022/07/28 05:50:16;;;;;;;5.18;3.35;;;13.10;99.90;;;;;;5070179;28;20047;-65
2022/07/28 05:52:42;;;;;;;5.97;3.70;;;13.20;99.90;;;;;;5074983;28;20067;-64
2022/07/28 05:55:08;;;;;;;6.68;3.90;;;13.20;99.90;;;;;;5038860;28;20129;-64
2022/07/28 05:57:35;;;;;;;5.47;3.53;;;13.30;99.90;;;;;;5063086;28;20040;-64
2022/07/28 06:00:02;;;;;;;6.18;3.42;;;13.30;99.90;;;;;;5048075;28;20036;-64
2022/07/28 06:02:28;;;;;;;6.55;3.70;;;13.40;99.90;;;;;;5054367;28;20489;-64
2022/07/28 06:04:55;;;;;;;4.45;3.35;;;13.50;99.90;;;;;;5036320;28;20056;-64
2022/07/28 06:07:21;;;;;;;5.28;3.83;;;13.60;99.90;;;;;;5043745;28;20051;-64
2022/07/28 06:09:47;;;;;;;5.88;3.72;;;13.70;99.90;;;;;;5049014;28;20466;-61
2022/07/28 06:12:13;;;;;;;7.20;3.50;;;13.80;99.90;;;;;;5042631;28;20182;-57
2022/07/28 06:14:39;;;;;;;6.63;3.58;;;13.90;99.90;;;;;;5051102;28;20040;-58
2022/07/28 06:17:04;;;;;;;7.07;3.55;;;13.90;99.90;;;;;;5071510;28;20532;-57
2022/07/28 06:19:30;;;;;;;7.28;3.20;;;14.00;99.90;;;;;;5073492;28;20115;-57
2022/07/28 06:21:56;;;;;;;6.93;3.63;;;14.10;99.90;;;;;;5063566;28;20094;-58
2022/07/28 06:24:22;;;;;;;7.72;3.47;;;14.20;99.90;;;;;;5073937;28;20036;-58
2022/07/28 06:26:48;;;;;;;10.98;3.60;;;14.30;99.90;;;;;;5073299;28;20069;-57
2022/07/28 06:29:14;;;;;;;9.35;3.47;;;14.30;99.90;;;;;;5070336;28;20054;-59
2022/07/28 06:31:39;;;;;;;6.40;3.20;;;14.40;99.90;;;;;;5075330;28;20044;-59
2022/07/28 06:34:05;;;;;;;7.95;3.55;;;14.50;99.90;;;;;;5068311;28;20041;-58
2022/07/28 06:36:31;;;;;;;10.68;3.05;;;14.60;99.90;;;;;;5074113;28;20433;-57
2022/07/28 06:38:57;;;;;;;10.32;3.22;;;14.60;99.90;;;;;;5074047;28;20036;-58
2022/07/28 06:41:23;;;;;;;10.60;3.30;;;14.70;99.90;;;;;;5073504;28;20068;-58
2022/07/28 06:43:51;;;;;;;10.35;3.60;;;14.80;99.90;;;;;;5070502;28;20048;-57
2022/07/28 06:46:18;;;;;;;9.88;2.75;;;14.80;99.90;;;;;;5070285;28;20060;-59
2022/07/28 06:48:44;;;;;;;12.88;2.80;;;14.90;99.90;;;;;;5056881;28;20136;-58
2022/07/28 06:51:11;;;;;;;7.90;2.88;;;14.80;99.90;;;;;;5074381;28;20089;-58
2022/07/28 06:53:37;;;;;;;6.90;2.92;;;14.80;99.90;;;;;;5072404;28;20080;-58
2022/07/28 06:56:04;;;;;;;6.15;3.17;;;14.80;99.90;;;;;;5072184;28;20079;-59
2022/07/28 06:58:30;;;;;;;7.35;3.03;;;14.80;99.90;;;;;;5072846;28;20043;-59
2022/07/28 07:00:56;;;;;;;6.38;3.17;;;14.80;99.90;;;;;;5056734;28;20048;-58
2022/07/28 07:03:21;;;;;;;5.80;3.30;;;14.80;99.90;;;;;;5070135;28;20063;-58
2022/07/28 07:05:47;;;;;;;5.28;2.85;;;14.70;99.90;;;;;;5069687;28;20139;-58
2022/07/28 07:08:13;;;;;;;5.60;2.78;;;14.70;99.90;;;;;;5073739;28;20047;-58
2022/07/28 07:10:39;;;;;;;5.93;2.90;;;14.60;99.90;;;;;;5072119;28;20041;-58
2022/07/28 07:13:04;;;;;;;6.60;3.40;;;14.60;99.90;;;;;;5072997;28;20045;-58
2022/07/28 07:15:30;;;;;;;7.00;3.00;;;14.60;99.90;;;;;;5070869;28;20122;-57
2022/07/28 07:17:56;;;;;;;9.32;2.83;;;14.60;99.90;;;;;;5071714;28;20118;-58
2022/07/28 07:20:22;;;;;;;7.10;2.92;;;14.60;99.90;;;;;;5055377;28;20080;-59
2022/07/28 07:22:48;;;;;;;5.82;2.65;;;14.60;99.90;;;;;;5071869;28;20521;-58
2022/07/28 07:25:16;;;;;;;4.43;2.67;;;14.70;99.90;;;;;;5055973;28;20133;-58
2022/07/28 07:27:42;;;;;;;6.00;2.75;;;14.70;99.90;;;;;;5070924;28;20064;-58
2022/07/28 07:30:09;;;;;;;3.90;2.40;;;14.80;99.90;;;;;;5072650;28;20138;-58
2022/07/28 07:32:35;;;;;;;5.43;2.63;;;14.80;99.90;;;;;;5071892;28;20054;-59
2022/07/28 07:35:02;;;;;;;5.32;3.15;;;14.90;99.90;;;;;;5073065;28;20085;-58
2022/07/28 07:37:31;;;;;;;8.73;3.28;;;14.90;99.90;;;;;;5069376;28;20040;-58
2022/07/28 07:40:00;;;;;;;5.72;3.22;;;14.90;99.90;;;;;;5053131;28;20056;-59
2022/07/28 07:42:27;;;;;;;4.90;2.55;;;15.00;99.90;;;;;;5074474;28;20133;-59
2022/07/28 07:44:53;;;;;;;5.65;2.85;;;15.20;99.90;;;;;;5073607;28;20537;-58
2022/07/28 07:47:18;;;;;;;7.82;2.67;;;15.20;99.90;;;;;;5075566;28;20043;-57
2022/07/28 07:49:44;;;;;;;4.72;2.20;;;15.30;99.90;;;;;;5076077;28;20127;-59
2022/07/28 07:52:10;;;;;;;2.42;1.42;;;15.40;99.90;;;;;;5076457;28;20145;-59
2022/07/28 07:54:36;;;;;;;2.75;1.67;;;15.50;99.90;;;;;;5075161;28;20497;-59
2022/07/28 07:57:02;;;;;;;4.35;1.90;;;15.60;99.90;;;;;;5074720;28;20866;-58
2022/07/28 07:59:28;;;;;;;9.23;1.90;;;15.70;99.90;;;;;;5057306;28;20040;-57
2022/07/28 08:01:54;;;;;;;6.78;1.75;;;15.80;99.90;;;;;;5058684;28;20105;-59
2022/07/28 08:04:22;;;;;;;4.93;2.00;;;15.90;99.90;;;;;;5073423;28;20056;-58
2022/07/28 08:06:51;;;;;;;4.45;1.70;;;16.00;99.90;;;;;;5054085;28;20044;-59
2022/07/28 08:09:18;;;;;;;6.57;2.00;;;16.10;99.90;;;;;;5075618;28;20046;-58
2022/07/28 08:11:44;;;;;;;6.70;1.80;;;16.20;99.90;;;;;;5074923;28;20167;-58
2022/07/28 08:14:10;;;;;;;7.50;1.63;;;16.30;99.90;;;;;;5074418;28;20056;-58
2022/07/28 08:16:36;;;;;;;7.30;1.40;;;16.40;99.90;;;;;;5076426;28;20494;-58
2022/07/28 08:19:03;;;;;;;3.83;1.33;;;16.40;99.90;;;;;;5074487;28;20125;-59
2022/07/28 08:21:29;;;;;;;4.18;1.40;;;16.50;99.90;;;;;;5074845;28;20041;-59
2022/07/28 08:23:55;;;;;;;4.38;1.20;;;16.50;99.90;;;;;;5065801;28;20561;-59
2022/07/28 08:26:22;;;;;;;3.10;1.30;;;16.50;99.90;;;;;;5076588;28;20045;-60
2022/07/28 08:28:48;;;;;;;4.63;1.20;;;16.60;99.90;;;;;;5070052;28;20045;-57
2022/07/28 08:31:16;;;;;;;6.35;1.40;;;16.60;99.80;;;;;;5073767;28;20578;-59
2022/07/28 08:33:45;;;;;;;4.13;1.40;;;16.60;99.60;;;;;;5076091;28;20407;-58
2022/07/28 08:36:11;;;;;;;4.85;1.30;;;16.60;99.20;;;;;;5076505;28;20040;-58
2022/07/28 08:38:36;;;;;;;3.75;1.40;;;16.60;99.10;;;;;;5075682;28;20101;-58
2022/07/28 08:41:04;;;;;;;3.15;1.10;;;16.70;98.80;;;;;;5078886;28;20122;-58
2022/07/28 08:43:38;;;;;;;7.85;1.40;;;16.70;98.60;;;;;;5079782;28;20371;-58
2022/07/28 08:46:05;;;;;;;3.60;1.23;;;16.70;98.50;;;;;;5074667;28;20131;-59
2022/07/28 08:48:35;;;;;;;5.88;1.52;;;16.70;98.40;;;;;;5078070;28;20040;-58
2022/07/28 08:51:05;;;;;;;3.63;1.38;;;16.80;98.50;;;;;;5041464;28;20059;-59
2022/07/28 08:53:33;;;;;;;1.63;1.00;;;16.90;98.00;;;;;;5078987;28;20079;-58
2022/07/28 08:56:02;;;;;;;6.18;1.33;;;17.00;97.70;;;;;;5079618;28;20440;-58
2022/07/28 08:58:33;;;;;;;3.88;1.20;;;17.00;97.50;;;;;;5076389;28;20035;-58
2022/07/28 09:01:00;;;;;;;10.70;1.27;;;17.10;97.40;;;;;;5077664;28;20395;-58
2022/07/28 09:03:27;;;;;;;3.70;1.17;;;17.20;97.10;;;;;;5076620;28;20090;-59
2022/07/28 09:05:54;;;;;;;3.10;1.10;;;17.40;97.20;;;;;;5077151;28;20062;-59
2022/07/28 09:08:20;;;;;;;2.17;1.08;;;17.60;97.20;;;;;;5082179;28;20399;-59
2022/07/28 09:10:47;;;;;;;5.40;1.23;;;17.90;97.10;;;;;;5076869;28;20390;-58
2022/07/28 09:13:14;;;;;;;1.73;1.15;;;18.20;96.40;;;;;;5079603;28;20083;-59
2022/07/28 09:15:41;;;;;;;2.42;1.85;;;18.40;95.80;;;;;;5079015;28;20486;-58
2022/07/28 09:18:06;;;;;;;3.40;1.35;;;18.60;95.10;;;;;;5078856;28;20101;-59
2022/07/28 09:20:36;;;;;;;1.40;1.00;;;18.80;94.60;;;;;;5075046;28;20044;-59
2022/07/28 09:23:05;;;;;;;2.75;0.95;;;18.90;93.90;;;;;;5065018;28;20036;-59
2022/07/28 09:25:31;;;;;;;3.33;1.40;;;19.00;93.90;;;;;;5076824;28;20058;-59
2022/07/28 09:28:11;;;;;;;3.30;1.20;;;19.20;93.90;;;;;;5058868;28;20390;-58
2022/07/28 09:30:40;;;;;;;5.15;1.48;;;19.40;93.50;;;;;;5074552;28;20059;-59
2022/07/28 09:33:23;;;;;;;3.75;1.20;;;19.60;92.80;;;;;;5061209;28;20044;-60
2022/07/28 09:35:49;;;;;;;3.13;1.00;;;19.70;92.50;;;;;;5061026;28;20052;-59
2022/07/28 09:38:15;;;;;;;4.82;1.10;;;19.80;92.10;;;;;;5077366;28;20109;-59
2022/07/28 09:40:43;;;;;;;2.78;1.10;;;20.00;91.70;;;;;;5077648;28;20120;-59
2022/07/28 09:43:11;;;;;;;2.75;1.05;;;20.20;91.50;;;;;;5077386;28;20064;-59
2022/07/28 09:45:37;;;;;;;3.00;1.02;;;20.30;91.20;;;;;;5073959;28;20044;-59
2022/07/28 09:48:12;;;;;;;6.13;1.00;;;20.50;90.60;;;;;;5076949;28;20056;-59
2022/07/28 09:50:40;;;;;;;5.40;1.00;;;20.70;89.70;;;;;;5077239;28;20058;-58
2022/07/28 09:53:32;;;;;;;2.95;1.00;;;20.80;89.50;;;;;;5076438;28;20083;-59
2022/07/28 09:56:00;;;;;;;3.08;1.42;;;21.00;89.30;;;;;;5071965;28;20048;-60
2022/07/28 09:58:31;;;;;;;2.35;0.93;;;21.00;87.30;;;;;;5076407;28;20043;-59
2022/07/28 10:01:08;;;;;;;3.42;1.00;;;21.10;86.80;;;;;;5079335;28;20040;-59
2022/07/28 10:03:36;;;;;;;4.25;1.08;;;21.10;84.90;;;;;;5076044;28;20054;-59
2022/07/28 10:06:06;;;;;;;6.00;1.10;;;20.90;84.70;;;;;;5060498;28;20067;-59
2022/07/28 10:08:46;;;;;;;4.53;0.90;;;20.80;84.70;;;;;;5076958;28;20239;-59
2022/07/28 10:11:19;;;;;;;3.78;1.05;;;20.70;82.30;;;;;;5075072;28;20044;-57
2022/07/28 10:13:55;;;;;;;2.03;0.90;;;20.70;82.40;;;;;;5075808;28;20044;-58
2022/07/28 10:16:22;;;;;;;2.30;0.80;;;20.90;80.80;;;;;;5077705;28;20142;-58
2022/07/28 10:18:48;;;;;;;6.28;0.90;;;21.00;79.30;;;;;;5079147;28;20505;-59
2022/07/28 10:21:17;;;;;;;3.90;0.77;;;20.90;78.10;;;;;;5076819;28;20040;-59
2022/07/28 10:23:51;;;;;;;2.45;0.70;;;20.90;78.20;;;;;;5077504;28;20097;-59
2022/07/28 10:26:20;;;;;;;2.17;0.95;;;20.80;76.50;;;;;;5076124;28;20063;-59
2022/07/28 10:28:49;;;;;;;1.50;0.80;;;20.80;76.60;;;;;;5073581;28;20052;-59
2022/07/28 10:31:36;;;;;;;6.43;1.00;;;20.80;76.70;;;;;;5073996;28;20060;-59
2022/07/28 10:34:04;;;;;;;1.95;0.77;;;20.80;76.80;;;;;;5074078;28;20525;-59
2022/07/28 10:36:32;;;;;;;2.42;0.68;;;20.80;76.50;;;;;;5075059;28;20123;-60
2022/07/28 10:39:27;;;;;;;2.25;0.90;;;20.80;77.10;;;;;;5066829;28;20051;-59
2022/07/28 10:41:53;;;;;;;5.78;0.90;;;20.80;77.70;;;;;;5073553;28;20132;-59
2022/07/28 10:44:20;;;;;;;2.00;0.80;;;20.80;77.70;;;;;;5074846;28;20475;-58
2022/07/28 10:46:46;;;;;;;1.27;0.73;;;20.70;77.20;;;;;;5074227;28;20450;-59
2022/07/28 10:49:13;;;;;;;2.75;1.00;;;20.60;76.80;;;;;;5074041;28;20052;-59
2022/07/28 10:51:45;;;;;;;1.33;0.88;;;20.60;76.50;;;;;;5075834;28;20048;-58
2022/07/28 10:54:24;;;;;;;2.60;0.82;;;20.50;76.60;;;;;;5078569;28;20548;-59
2022/07/28 10:56:56;;;;;;;1.58;0.80;;;20.30;76.00;;;;;;5075791;28;20041;-58
2022/07/28 10:59:36;;;;;;;1.47;0.83;;;20.10;76.00;;;;;;5076368;28;20040;-57
2022/07/28 11:02:02;;;;;;;6.68;1.25;;;20.00;76.90;;;;;;5073970;28;20294;-59
2022/07/28 11:04:54;;;;;;;3.17;0.80;;;20.00;77.50;;;;;;5077757;28;20058;-59
2022/07/28 11:07:21;;;;;;;1.92;0.90;;;20.10;76.30;;;;;;5062460;28;20055;-59
2022/07/28 11:09:47;;;;;;;3.13;0.80;;;20.00;76.90;;;;;;5078706;28;20115;-59
2022/07/28 11:12:16;;;;;;;2.20;0.80;;;20.00;76.70;;;;;;5072446;28;20044;-58
2022/07/28 11:14:43;;;;;;;2.58;1.00;;;19.90;76.90;;;;;;5066918;28;20045;-59
2022/07/28 11:17:12;;;;;;;1.55;0.85;;;19.90;77.50;;;;;;5072258;28;20186;-58
2022/07/28 11:19:43;;;;;;;5.43;1.10;;;19.80;77.60;;;;;;5073443;28;20102;-58
2022/07/28 11:22:16;;;;;;;1.42;0.80;;;19.80;77.70;;;;;;5076365;28;20047;-59
2022/07/28 11:25:03;;;;;;;1.65;0.90;;;19.70;77.60;;;;;;5072998;28;20055;-59
2022/07/28 11:27:48;;;;;;;2.92;0.90;;;19.70;78.10;;;;;;5050826;28;20651;-59
2022/07/28 11:30:27;;;;;;;1.73;0.85;;;19.70;77.70;;;;;;5075849;28;20074;-59
2022/07/28 11:32:53;;;;;;;1.67;1.00;;;19.80;77.60;;;;;;5074941;28;20078;-59
2022/07/28 11:35:23;;;;;;;2.25;0.90;;;19.90;77.50;;;;;;5065765;28;20155;-59
2022/07/28 11:38:01;;;;;;;1.67;0.85;;;19.90;77.70;;;;;;5074708;28;20042;-59
2022/07/28 11:40:44;;;;;;;5.43;0.80;;;20.00;76.70;;;;;;5058005;28;20094;-58
2022/07/28 11:43:31;;;;;;;2.03;0.80;;;20.00;76.40;;;;;;5077865;28;20415;-58
2022/07/28 11:46:07;;;;;;;2.28;1.00;;;20.00;75.60;;;;;;5075281;28;20035;-59
2022/07/28 11:48:34;;;;;;;1.77;0.80;;;20.00;75.10;;;;;;5074095;28;20036;-59
2022/07/28 11:51:03;;;;;;;2.88;1.00;;;20.00;75.50;;;;;;5073582;28;20036;-59
2022/07/28 11:53:36;;;;;;;4.88;0.90;;;20.10;74.90;;;;;;5073976;28;20079;-59
2022/07/28 11:56:04;;;;;;;2.45;0.90;;;20.20;75.40;;;;;;5076201;28;20367;-59
2022/07/28 11:58:30;;;;;;;2.67;0.90;;;20.30;75.70;;;;;;5073764;28;20055;-59
2022/07/28 12:01:16;;;;;;;1.73;0.93;;;20.40;76.00;;;;;;5074675;28;20486;-59
2022/07/28 12:03:43;;;;;;;1.15;0.70;;;20.60;74.60;;;;;;5075575;28;20076;-58
2022/07/28 12:06:10;;;;;;;2.33;0.88;;;20.60;74.20;;;;;;5074192;28;20039;-59
2022/07/28 12:08:58;;;;;;;2.17;0.80;;;20.70;73.90;;;;;;5076936;28;20125;-58
2022/07/28 12:11:25;;;;;;;3.05;0.93;;;20.70;73.20;;;;;;5077618;28;20051;-59
2022/07/28 12:14:06;;;;;;;4.30;1.00;;;20.70;73.60;;;;;;5062917;28;20131;-59
2022/07/28 12:16:38;;;;;;;2.25;0.90;;;20.60;72.10;;;;;;5078796;28;20117;-58
2022/07/28 12:19:05;;;;;;;1.42;0.80;;;20.60;72.00;;;;;;5079544;28;20040;-58
2022/07/28 12:21:42;;;;;;;2.53;1.20;;;20.60;72.30;;;;;;5061399;28;20055;-59
2022/07/28 12:24:11;;;;;;;2.30;0.75;;;20.60;71.40;;;;;;5061306;28;20040;-59
2022/07/28 12:26:38;;;;;;;1.77;0.85;;;20.50;72.60;;;;;;5079440;28;20044;-59
2022/07/28 12:29:05;;;;;;;1.33;0.80;;;20.60;72.50;;;;;;5075470;28;20036;-59
2022/07/28 12:31:32;;;;;;;2.30;1.00;;;20.70;72.80;;;;;;5079021;28;20064;-58
2022/07/28 12:34:01;;;;;;;1.05;0.70;;;20.70;72.90;;;;;;5081825;28;20044;-59
2022/07/28 12:36:28;;;;;;;2.70;0.80;;;20.70;72.90;;;;;;5079079;28;20036;-59
2022/07/28 12:38:54;;;;;;;2.38;0.90;;;20.60;73.30;;;;;;5081493;28;20036;-59
2022/07/28 12:41:21;;;;;;;2.95;0.82;;;20.70;73.40;;;;;;5078657;28;20041;-58
2022/07/28 12:43:54;;;;;;;3.20;0.88;;;20.90;73.50;;;;;;5078487;28;20044;-59
2022/07/28 12:46:25;;;;;;;4.28;1.20;;;21.10;72.80;;;;;;5068009;28;20050;-59
2022/07/28 12:48:51;;;;;;;2.88;1.00;;;21.20;73.40;;;;;;5052854;28;20043;-59
2022/07/28 12:51:38;;;;;;;2.28;0.82;;;21.50;73.50;;;;;;5077398;28;20033;-57
2022/07/28 12:54:06;;;;;;;1.40;0.88;;;21.70;73.10;;;;;;5076618;28;20097;-59
2022/07/28 12:56:47;;;;;;;1.05;0.70;;;21.90;72.10;;;;;;5078745;28;20461;-59
2022/07/28 12:59:14;;;;;;;5.82;1.30;;;22.10;71.00;;;;;;5079244;28;20128;-59